sensor_id;sensor_type;location;lat;lon;timestamp;P1;durP1;ratioP1;P2;durP2;ratioP2
76355;SDS011;65184;50.952;4.366;2023-04-07T00:00:40;19.15;;;12.63;;
76355;SDS011;65184;50.952;4.366;2023-04-07T00:02:02;21.88;;;13.30;;
76355;SDS011;65184;50.952;4.366;2023-04-07T00:03:23;22.67;;;11.93;;
76355;SDS011;65184;50.952;4.366;2023-04-07T00:04:45;23.50;;;12.25;;
76355;SDS011;65184;50.952;4.366;2023-04-07T00:06:07;22.88;;;12.55;;
76355;SDS011;65184;50.952;4.366;2023-04-07T00:07:28;20.60;;;12.18;;
76355;SDS011;65184;50.952;4.366;2023-04-07T00:08:50;23.35;;;13.40;;
76355;SDS011;65184;50.952;4.366;2023-04-07T00:10:12;18.80;;;13.43;;
76355;SDS011;65184;50.952;4.366;2023-04-07T00:11:33;19.38;;;12.82;;
76355;SDS011;65184;50.952;4.366;2023-04-07T00:12:55;18.17;;;12.18;;
76355;SDS011;65184;50.952;4.366;2023-04-07T00:14:16;16.02;;;10.68;;
76355;SDS011;65184;50.952;4.366;2023-04-07T00:15:38;24.85;;;13.85;;
76355;SDS011;65184;50.952;4.366;2023-04-07T00:16:59;19.70;;;12.00;;
76355;SDS011;65184;50.952;4.366;2023-04-07T00:18:21;24.58;;;13.70;;
76355;SDS011;65184;50.952;4.366;2023-04-07T00:19:42;16.92;;;11.85;;
76355;SDS011;65184;50.952;4.366;2023-04-07T00:21:04;23.88;;;14.55;;
76355;SDS011;65184;50.952;4.366;2023-04-07T00:22:25;19.38;;;12.93;;
76355;SDS011;65184;50.952;4.366;2023-04-07T00:23:48;17.52;;;12.52;;
76355;SDS011;65184;50.952;4.366;2023-04-07T00:25:09;21.65;;;13.20;;
76355;SDS011;65184;50.952;4.366;2023-04-07T00:26:30;19.00;;;12.30;;
76355;SDS011;65184;50.952;4.366;2023-04-07T00:27:53;20.42;;;12.27;;
76355;SDS011;65184;50.952;4.366;2023-04-07T00:29:15;22.55;;;13.65;;
76355;SDS011;65184;50.952;4.366;2023-04-07T00:30:36;26.50;;;13.98;;
76355;SDS011;65184;50.952;4.366;2023-04-07T00:31:58;24.88;;;14.43;;
76355;SDS011;65184;50.952;4.366;2023-04-07T00:33:20;21.70;;;12.73;;
76355;SDS011;65184;50.952;4.366;2023-04-07T00:34:43;22.98;;;13.63;;
76355;SDS011;65184;50.952;4.366;2023-04-07T00:36:04;21.85;;;14.25;;
76355;SDS011;65184;50.952;4.366;2023-04-07T00:37:26;21.48;;;13.23;;
76355;SDS011;65184;50.952;4.366;2023-04-07T00:38:47;23.02;;;13.95;;
76355;SDS011;65184;50.952;4.366;2023-04-07T00:40:09;20.85;;;12.02;;
76355;SDS011;65184;50.952;4.366;2023-04-07T00:41:32;26.27;;;14.82;;
76355;SDS011;65184;50.952;4.366;2023-04-07T00:42:55;24.00;;;13.70;;
76355;SDS011;65184;50.952;4.366;2023-04-07T00:44:17;23.65;;;14.07;;
76355;SDS011;65184;50.952;4.366;2023-04-07T00:45:39;24.45;;;13.13;;
76355;SDS011;65184;50.952;4.366;2023-04-07T00:47:01;23.77;;;14.73;;
76355;SDS011;65184;50.952;4.366;2023-04-07T00:48:22;21.38;;;13.15;;
76355;SDS011;65184;50.952;4.366;2023-04-07T00:49:45;23.67;;;14.27;;
76355;SDS011;65184;50.952;4.366;2023-04-07T00:51:06;23.23;;;14.02;;
76355;SDS011;65184;50.952;4.366;2023-04-07T00:52:28;25.73;;;14.63;;
76355;SDS011;65184;50.952;4.366;2023-04-07T00:53:50;26.13;;;14.63;;
76355;SDS011;65184;50.952;4.366;2023-04-07T00:55:12;26.73;;;14.80;;
76355;SDS011;65184;50.952;4.366;2023-04-07T00:56:34;21.10;;;12.23;;
76355;SDS011;65184;50.952;4.366;2023-04-07T00:57:55;18.10;;;11.35;;
76355;SDS011;65184;50.952;4.366;2023-04-07T00:59:19;19.83;;;11.52;;
76355;SDS011;65184;50.952;4.366;2023-04-07T01:00:54;23.13;;;13.43;;
76355;SDS011;65184;50.952;4.366;2023-04-07T01:04:24;17.02;;;10.70;;
76355;SDS011;65184;50.952;4.366;2023-04-07T01:05:59;20.33;;;12.90;;
76355;SDS011;65184;50.952;4.366;2023-04-07T01:07:27;24.52;;;13.43;;
76355;SDS011;65184;50.952;4.366;2023-04-07T01:09:15;25.15;;;14.80;;
76355;SDS011;65184;50.952;4.366;2023-04-07T01:10:48;24.35;;;13.93;;
76355;SDS011;65184;50.952;4.366;2023-04-07T01:13:57;22.90;;;12.93;;
76355;SDS011;65184;50.952;4.366;2023-04-07T01:15:28;23.20;;;13.32;;
76355;SDS011;65184;50.952;4.366;2023-04-07T01:16:53;23.10;;;11.52;;
76355;SDS011;65184;50.952;4.366;2023-04-07T01:18:35;30.30;;;15.38;;
76355;SDS011;65184;50.952;4.366;2023-04-07T01:19:58;21.27;;;12.75;;
76355;SDS011;65184;50.952;4.366;2023-04-07T01:21:27;25.88;;;14.15;;
76355;SDS011;65184;50.952;4.366;2023-04-07T01:22:52;24.48;;;12.13;;
76355;SDS011;65184;50.952;4.366;2023-04-07T01:26:24;23.83;;;13.27;;
76355;SDS011;65184;50.952;4.366;2023-04-07T01:27:57;24.50;;;14.00;;
76355;SDS011;65184;50.952;4.366;2023-04-07T01:29:36;25.70;;;13.65;;
76355;SDS011;65184;50.952;4.366;2023-04-07T01:32:19;23.80;;;13.38;;
76355;SDS011;65184;50.952;4.366;2023-04-07T01:33:42;22.90;;;12.73;;
76355;SDS011;65184;50.952;4.366;2023-04-07T01:35:05;27.80;;;14.50;;
76355;SDS011;65184;50.952;4.366;2023-04-07T01:36:31;21.48;;;13.00;;
76355;SDS011;65184;50.952;4.366;2023-04-07T01:37:56;27.10;;;16.20;;
76355;SDS011;65184;50.952;4.366;2023-04-07T01:39:21;23.90;;;14.07;;
76355;SDS011;65184;50.952;4.366;2023-04-07T01:40:43;29.50;;;16.30;;
76355;SDS011;65184;50.952;4.366;2023-04-07T01:42:05;24.50;;;15.95;;
76355;SDS011;65184;50.952;4.366;2023-04-07T01:43:27;32.22;;;15.90;;
76355;SDS011;65184;50.952;4.366;2023-04-07T01:44:51;25.48;;;15.73;;
76355;SDS011;65184;50.952;4.366;2023-04-07T01:46:14;38.15;;;19.67;;
76355;SDS011;65184;50.952;4.366;2023-04-07T01:47:36;27.48;;;14.40;;
76355;SDS011;65184;50.952;4.366;2023-04-07T01:48:58;37.38;;;17.38;;
76355;SDS011;65184;50.952;4.366;2023-04-07T01:50:21;32.70;;;17.70;;
76355;SDS011;65184;50.952;4.366;2023-04-07T01:51:42;24.48;;;14.98;;
76355;SDS011;65184;50.952;4.366;2023-04-07T01:53:05;23.17;;;14.60;;
76355;SDS011;65184;50.952;4.366;2023-04-07T01:54:27;29.02;;;17.42;;
76355;SDS011;65184;50.952;4.366;2023-04-07T01:55:49;24.02;;;14.35;;
76355;SDS011;65184;50.952;4.366;2023-04-07T01:57:10;37.53;;;19.30;;
76355;SDS011;65184;50.952;4.366;2023-04-07T01:58:32;28.65;;;15.80;;
76355;SDS011;65184;50.952;4.366;2023-04-07T01:59:54;29.45;;;17.10;;
76355;SDS011;65184;50.952;4.366;2023-04-07T02:01:19;34.22;;;18.83;;
76355;SDS011;65184;50.952;4.366;2023-04-07T02:02:43;30.92;;;17.92;;
76355;SDS011;65184;50.952;4.366;2023-04-07T02:05:32;33.47;;;17.75;;
76355;SDS011;65184;50.952;4.366;2023-04-07T02:06:58;34.95;;;19.42;;
76355;SDS011;65184;50.952;4.366;2023-04-07T02:08:29;38.28;;;19.50;;
76355;SDS011;65184;50.952;4.366;2023-04-07T02:09:54;40.75;;;20.70;;
76355;SDS011;65184;50.952;4.366;2023-04-07T02:11:19;36.15;;;18.58;;
76355;SDS011;65184;50.952;4.366;2023-04-07T02:12:43;37.00;;;19.20;;
76355;SDS011;65184;50.952;4.366;2023-04-07T02:14:10;37.85;;;19.33;;
76355;SDS011;65184;50.952;4.366;2023-04-07T02:15:53;34.58;;;17.33;;
76355;SDS011;65184;50.952;4.366;2023-04-07T02:17:15;37.05;;;18.70;;
76355;SDS011;65184;50.952;4.366;2023-04-07T02:18:37;40.13;;;18.85;;
76355;SDS011;65184;50.952;4.366;2023-04-07T02:19:59;32.03;;;17.98;;
76355;SDS011;65184;50.952;4.366;2023-04-07T02:21:21;32.58;;;16.33;;
76355;SDS011;65184;50.952;4.366;2023-04-07T02:22:43;32.63;;;17.92;;
76355;SDS011;65184;50.952;4.366;2023-04-07T02:24:06;43.90;;;20.17;;
76355;SDS011;65184;50.952;4.366;2023-04-07T02:25:28;46.60;;;20.48;;
76355;SDS011;65184;50.952;4.366;2023-04-07T02:26:51;43.05;;;19.45;;
76355;SDS011;65184;50.952;4.366;2023-04-07T02:28:13;35.80;;;18.60;;
76355;SDS011;65184;50.952;4.366;2023-04-07T02:29:35;33.45;;;17.92;;
76355;SDS011;65184;50.952;4.366;2023-04-07T02:30:56;24.70;;;14.52;;
76355;SDS011;65184;50.952;4.366;2023-04-07T02:32:19;27.27;;;15.27;;
76355;SDS011;65184;50.952;4.366;2023-04-07T02:33:40;31.40;;;17.08;;
76355;SDS011;65184;50.952;4.366;2023-04-07T02:35:02;27.63;;;15.18;;
76355;SDS011;65184;50.952;4.366;2023-04-07T02:36:24;27.33;;;16.35;;
76355;SDS011;65184;50.952;4.366;2023-04-07T02:39:08;30.85;;;16.48;;
76355;SDS011;65184;50.952;4.366;2023-04-07T02:40:30;26.38;;;14.75;;
76355;SDS011;65184;50.952;4.366;2023-04-07T02:41:52;25.13;;;14.18;;
76355;SDS011;65184;50.952;4.366;2023-04-07T02:43:14;29.05;;;16.23;;
76355;SDS011;65184;50.952;4.366;2023-04-07T02:44:37;25.95;;;15.02;;
76355;SDS011;65184;50.952;4.366;2023-04-07T02:45:58;32.80;;;16.75;;
76355;SDS011;65184;50.952;4.366;2023-04-07T02:47:20;28.42;;;16.65;;
76355;SDS011;65184;50.952;4.366;2023-04-07T02:48:44;26.25;;;16.15;;
76355;SDS011;65184;50.952;4.366;2023-04-07T02:50:05;45.53;;;21.20;;
76355;SDS011;65184;50.952;4.366;2023-04-07T02:51:30;26.23;;;15.23;;
76355;SDS011;65184;50.952;4.366;2023-04-07T02:52:51;29.45;;;16.33;;
76355;SDS011;65184;50.952;4.366;2023-04-07T02:54:14;23.48;;;14.95;;
76355;SDS011;65184;50.952;4.366;2023-04-07T02:55:36;39.88;;;19.60;;
76355;SDS011;65184;50.952;4.366;2023-04-07T02:56:59;27.30;;;13.32;;
76355;SDS011;65184;50.952;4.366;2023-04-07T02:58:21;27.48;;;15.98;;
76355;SDS011;65184;50.952;4.366;2023-04-07T02:59:43;22.95;;;14.27;;
76355;SDS011;65184;50.952;4.366;2023-04-07T03:01:06;31.88;;;16.73;;
76355;SDS011;65184;50.952;4.366;2023-04-07T03:02:29;30.45;;;16.40;;
76355;SDS011;65184;50.952;4.366;2023-04-07T03:03:51;32.65;;;16.52;;
76355;SDS011;65184;50.952;4.366;2023-04-07T03:05:17;21.08;;;13.82;;
76355;SDS011;65184;50.952;4.366;2023-04-07T03:06:38;34.15;;;16.48;;
76355;SDS011;65184;50.952;4.366;2023-04-07T03:08:05;31.90;;;16.23;;
76355;SDS011;65184;50.952;4.366;2023-04-07T03:09:27;25.77;;;15.63;;
76355;SDS011;65184;50.952;4.366;2023-04-07T03:10:51;31.92;;;15.23;;
76355;SDS011;65184;50.952;4.366;2023-04-07T03:12:18;36.60;;;17.45;;
76355;SDS011;65184;50.952;4.366;2023-04-07T03:13:40;28.33;;;15.05;;
76355;SDS011;65184;50.952;4.366;2023-04-07T03:15:02;37.40;;;17.25;;
76355;SDS011;65184;50.952;4.366;2023-04-07T03:16:24;35.00;;;16.38;;
76355;SDS011;65184;50.952;4.366;2023-04-07T03:18:05;43.53;;;18.38;;
76355;SDS011;65184;50.952;4.366;2023-04-07T03:19:27;35.08;;;15.48;;
76355;SDS011;65184;50.952;4.366;2023-04-07T03:20:48;32.53;;;15.00;;
76355;SDS011;65184;50.952;4.366;2023-04-07T03:22:21;33.85;;;13.35;;
76355;SDS011;65184;50.952;4.366;2023-04-07T03:23:45;37.55;;;16.30;;
76355;SDS011;65184;50.952;4.366;2023-04-07T03:25:07;46.65;;;17.85;;
76355;SDS011;65184;50.952;4.366;2023-04-07T03:26:29;38.45;;;16.17;;
76355;SDS011;65184;50.952;4.366;2023-04-07T03:27:51;45.17;;;18.23;;
76355;SDS011;65184;50.952;4.366;2023-04-07T03:29:13;40.47;;;17.15;;
76355;SDS011;65184;50.952;4.366;2023-04-07T03:30:36;45.08;;;18.67;;
76355;SDS011;65184;50.952;4.366;2023-04-07T03:31:58;40.80;;;18.10;;
76355;SDS011;65184;50.952;4.366;2023-04-07T03:34:42;42.03;;;17.75;;
76355;SDS011;65184;50.952;4.366;2023-04-07T03:36:03;44.78;;;17.38;;
76355;SDS011;65184;50.952;4.366;2023-04-07T03:37:25;36.67;;;15.18;;
76355;SDS011;65184;50.952;4.366;2023-04-07T03:38:49;42.30;;;17.05;;
76355;SDS011;65184;50.952;4.366;2023-04-07T03:40:12;45.22;;;18.25;;
76355;SDS011;65184;50.952;4.366;2023-04-07T03:41:35;35.60;;;16.30;;
76355;SDS011;65184;50.952;4.366;2023-04-07T03:42:56;40.50;;;15.90;;
76355;SDS011;65184;50.952;4.366;2023-04-07T03:44:18;44.65;;;18.45;;
76355;SDS011;65184;50.952;4.366;2023-04-07T03:45:40;48.28;;;19.38;;
76355;SDS011;65184;50.952;4.366;2023-04-07T03:47:02;38.05;;;15.80;;
76355;SDS011;65184;50.952;4.366;2023-04-07T03:48:25;42.65;;;18.25;;
76355;SDS011;65184;50.952;4.366;2023-04-07T03:49:57;41.10;;;18.40;;
76355;SDS011;65184;50.952;4.366;2023-04-07T03:51:19;39.38;;;17.42;;
76355;SDS011;65184;50.952;4.366;2023-04-07T03:52:44;41.63;;;17.65;;
76355;SDS011;65184;50.952;4.366;2023-04-07T03:54:17;41.55;;;19.17;;
76355;SDS011;65184;50.952;4.366;2023-04-07T03:55:39;35.65;;;16.70;;
76355;SDS011;65184;50.952;4.366;2023-04-07T03:57:09;35.88;;;18.02;;
76355;SDS011;65184;50.952;4.366;2023-04-07T03:58:37;48.05;;;18.63;;
76355;SDS011;65184;50.952;4.366;2023-04-07T03:59:59;36.70;;;16.35;;
76355;SDS011;65184;50.952;4.366;2023-04-07T04:01:25;40.75;;;17.77;;
76355;SDS011;65184;50.952;4.366;2023-04-07T04:02:48;38.50;;;16.90;;
76355;SDS011;65184;50.952;4.366;2023-04-07T04:04:13;47.00;;;19.88;;
76355;SDS011;65184;50.952;4.366;2023-04-07T04:05:35;39.92;;;18.75;;
76355;SDS011;65184;50.952;4.366;2023-04-07T04:06:57;43.80;;;19.33;;
76355;SDS011;65184;50.952;4.366;2023-04-07T04:08:38;44.45;;;17.98;;
76355;SDS011;65184;50.952;4.366;2023-04-07T04:10:00;47.63;;;20.38;;
76355;SDS011;65184;50.952;4.366;2023-04-07T04:11:24;44.17;;;20.35;;
76355;SDS011;65184;50.952;4.366;2023-04-07T04:12:51;38.45;;;18.38;;
76355;SDS011;65184;50.952;4.366;2023-04-07T04:14:12;44.97;;;22.15;;
76355;SDS011;65184;50.952;4.366;2023-04-07T04:15:36;37.63;;;17.40;;
76355;SDS011;65184;50.952;4.366;2023-04-07T04:17:00;44.28;;;19.02;;
76355;SDS011;65184;50.952;4.366;2023-04-07T04:18:28;34.72;;;17.05;;
76355;SDS011;65184;50.952;4.366;2023-04-07T04:21:18;40.53;;;18.02;;
76355;SDS011;65184;50.952;4.366;2023-04-07T04:22:40;53.97;;;22.05;;
76355;SDS011;65184;50.952;4.366;2023-04-07T04:24:02;38.08;;;18.55;;
76355;SDS011;65184;50.952;4.366;2023-04-07T04:25:24;42.60;;;19.33;;
76355;SDS011;65184;50.952;4.366;2023-04-07T04:26:49;56.60;;;23.65;;
76355;SDS011;65184;50.952;4.366;2023-04-07T04:28:11;39.03;;;20.95;;
76355;SDS011;65184;50.952;4.366;2023-04-07T04:29:33;68.22;;;25.45;;
76355;SDS011;65184;50.952;4.366;2023-04-07T04:30:56;46.47;;;21.67;;
76355;SDS011;65184;50.952;4.366;2023-04-07T04:32:18;40.72;;;19.38;;
76355;SDS011;65184;50.952;4.366;2023-04-07T04:33:41;48.55;;;20.77;;
76355;SDS011;65184;50.952;4.366;2023-04-07T04:35:04;39.20;;;20.70;;
76355;SDS011;65184;50.952;4.366;2023-04-07T04:36:30;38.42;;;19.42;;
76355;SDS011;65184;50.952;4.366;2023-04-07T04:37:57;38.80;;;18.27;;
76355;SDS011;65184;50.952;4.366;2023-04-07T04:39:19;48.50;;;21.38;;
76355;SDS011;65184;50.952;4.366;2023-04-07T04:40:41;50.08;;;22.80;;
76355;SDS011;65184;50.952;4.366;2023-04-07T04:42:02;69.90;;;26.55;;
76355;SDS011;65184;50.952;4.366;2023-04-07T04:43:29;42.15;;;21.55;;
76355;SDS011;65184;50.952;4.366;2023-04-07T04:44:51;41.95;;;20.33;;
76355;SDS011;65184;50.952;4.366;2023-04-07T04:46:13;39.78;;;20.38;;
76355;SDS011;65184;50.952;4.366;2023-04-07T04:47:37;44.03;;;20.30;;
76355;SDS011;65184;50.952;4.366;2023-04-07T04:48:59;59.80;;;24.63;;
76355;SDS011;65184;50.952;4.366;2023-04-07T04:50:22;52.65;;;22.70;;
76355;SDS011;65184;50.952;4.366;2023-04-07T04:51:44;55.30;;;23.80;;
76355;SDS011;65184;50.952;4.366;2023-04-07T04:53:10;48.25;;;21.98;;
76355;SDS011;65184;50.952;4.366;2023-04-07T04:54:39;55.58;;;21.92;;
76355;SDS011;65184;50.952;4.366;2023-04-07T04:56:02;51.13;;;22.75;;
76355;SDS011;65184;50.952;4.366;2023-04-07T04:57:32;45.17;;;21.13;;
76355;SDS011;65184;50.952;4.366;2023-04-07T04:58:58;51.95;;;22.27;;
76355;SDS011;65184;50.952;4.366;2023-04-07T05:00:48;52.20;;;22.60;;
76355;SDS011;65184;50.952;4.366;2023-04-07T05:02:09;84.20;;;30.25;;
76355;SDS011;65184;50.952;4.366;2023-04-07T05:03:32;59.45;;;23.15;;
76355;SDS011;65184;50.952;4.366;2023-04-07T05:04:57;76.35;;;27.60;;
76355;SDS011;65184;50.952;4.366;2023-04-07T05:06:22;48.35;;;21.05;;
76355;SDS011;65184;50.952;4.366;2023-04-07T05:07:45;70.57;;;25.75;;
76355;SDS011;65184;50.952;4.366;2023-04-07T05:10:39;55.60;;;21.25;;
76355;SDS011;65184;50.952;4.366;2023-04-07T05:12:05;83.80;;;28.90;;
76355;SDS011;65184;50.952;4.366;2023-04-07T05:13:32;60.78;;;26.60;;
76355;SDS011;65184;50.952;4.366;2023-04-07T05:14:56;58.17;;;22.20;;
76355;SDS011;65184;50.952;4.366;2023-04-07T05:16:17;55.35;;;22.58;;
76355;SDS011;65184;50.952;4.366;2023-04-07T05:17:39;50.05;;;23.15;;
76355;SDS011;65184;50.952;4.366;2023-04-07T05:19:02;75.55;;;26.92;;
76355;SDS011;65184;50.952;4.366;2023-04-07T05:20:23;64.75;;;26.88;;
76355;SDS011;65184;50.952;4.366;2023-04-07T05:21:45;69.82;;;27.40;;
76355;SDS011;65184;50.952;4.366;2023-04-07T05:23:08;64.60;;;25.00;;
76355;SDS011;65184;50.952;4.366;2023-04-07T05:25:55;65.05;;;23.42;;
76355;SDS011;65184;50.952;4.366;2023-04-07T05:27:17;57.38;;;24.25;;
76355;SDS011;65184;50.952;4.366;2023-04-07T05:28:43;42.17;;;19.13;;
76355;SDS011;65184;50.952;4.366;2023-04-07T05:30:10;68.75;;;25.10;;
76355;SDS011;65184;50.952;4.366;2023-04-07T05:33:00;63.30;;;22.73;;
76355;SDS011;65184;50.952;4.366;2023-04-07T05:34:34;66.50;;;24.42;;
76355;SDS011;65184;50.952;4.366;2023-04-07T05:35:57;56.35;;;24.25;;
76355;SDS011;65184;50.952;4.366;2023-04-07T05:37:19;64.35;;;25.63;;
76355;SDS011;65184;50.952;4.366;2023-04-07T05:38:41;61.78;;;27.55;;
76355;SDS011;65184;50.952;4.366;2023-04-07T05:40:07;61.30;;;26.17;;
76355;SDS011;65184;50.952;4.366;2023-04-07T05:41:29;59.30;;;26.50;;
76355;SDS011;65184;50.952;4.366;2023-04-07T05:42:52;71.53;;;28.30;;
76355;SDS011;65184;50.952;4.366;2023-04-07T05:44:13;62.00;;;28.05;;
76355;SDS011;65184;50.952;4.366;2023-04-07T05:45:36;62.08;;;27.35;;
76355;SDS011;65184;50.952;4.366;2023-04-07T05:46:57;48.22;;;22.80;;
76355;SDS011;65184;50.952;4.366;2023-04-07T05:48:21;56.70;;;24.33;;
76355;SDS011;65184;50.952;4.366;2023-04-07T05:49:43;52.20;;;22.33;;
76355;SDS011;65184;50.952;4.366;2023-04-07T05:51:08;56.15;;;24.27;;
76355;SDS011;65184;50.952;4.366;2023-04-07T05:52:30;49.03;;;24.13;;
76355;SDS011;65184;50.952;4.366;2023-04-07T05:54:03;47.92;;;23.50;;
76355;SDS011;65184;50.952;4.366;2023-04-07T05:55:25;48.22;;;22.70;;
76355;SDS011;65184;50.952;4.366;2023-04-07T05:56:47;45.75;;;22.02;;
76355;SDS011;65184;50.952;4.366;2023-04-07T05:58:09;57.33;;;24.63;;
76355;SDS011;65184;50.952;4.366;2023-04-07T05:59:33;46.75;;;22.35;;
76355;SDS011;65184;50.952;4.366;2023-04-07T06:00:55;53.97;;;23.25;;
76355;SDS011;65184;50.952;4.366;2023-04-07T06:02:17;55.30;;;25.23;;
76355;SDS011;65184;50.952;4.366;2023-04-07T06:03:41;44.72;;;22.17;;
76355;SDS011;65184;50.952;4.366;2023-04-07T06:05:09;45.85;;;21.52;;
76355;SDS011;65184;50.952;4.366;2023-04-07T06:06:33;45.22;;;21.75;;
76355;SDS011;65184;50.952;4.366;2023-04-07T06:07:55;48.97;;;24.13;;
76355;SDS011;65184;50.952;4.366;2023-04-07T06:09:20;46.55;;;22.70;;
76355;SDS011;65184;50.952;4.366;2023-04-07T06:10:42;61.70;;;26.45;;
76355;SDS011;65184;50.952;4.366;2023-04-07T06:12:04;50.15;;;23.00;;
76355;SDS011;65184;50.952;4.366;2023-04-07T06:13:27;59.67;;;24.85;;
76355;SDS011;65184;50.952;4.366;2023-04-07T06:14:52;57.33;;;24.27;;
76355;SDS011;65184;50.952;4.366;2023-04-07T06:16:16;54.42;;;25.10;;
76355;SDS011;65184;50.952;4.366;2023-04-07T06:17:37;48.20;;;23.10;;
76355;SDS011;65184;50.952;4.366;2023-04-07T06:18:59;70.13;;;26.58;;
76355;SDS011;65184;50.952;4.366;2023-04-07T06:20:23;71.63;;;26.60;;
76355;SDS011;65184;50.952;4.366;2023-04-07T06:21:45;52.67;;;21.33;;
76355;SDS011;65184;50.952;4.366;2023-04-07T06:23:07;56.25;;;23.65;;
76355;SDS011;65184;50.952;4.366;2023-04-07T06:24:28;72.55;;;28.10;;
76355;SDS011;65184;50.952;4.366;2023-04-07T06:25:50;43.25;;;21.65;;
76355;SDS011;65184;50.952;4.366;2023-04-07T06:27:13;60.58;;;24.67;;
76355;SDS011;65184;50.952;4.366;2023-04-07T06:28:34;55.78;;;23.00;;
76355;SDS011;65184;50.952;4.366;2023-04-07T06:29:56;47.70;;;22.00;;
76355;SDS011;65184;50.952;4.366;2023-04-07T06:31:17;37.17;;;19.35;;
76355;SDS011;65184;50.952;4.366;2023-04-07T06:32:39;38.92;;;19.73;;
76355;SDS011;65184;50.952;4.366;2023-04-07T06:34:01;55.92;;;23.40;;
76355;SDS011;65184;50.952;4.366;2023-04-07T06:35:22;50.35;;;23.45;;
76355;SDS011;65184;50.952;4.366;2023-04-07T06:36:46;54.42;;;23.80;;
76355;SDS011;65184;50.952;4.366;2023-04-07T06:38:08;50.58;;;22.27;;
76355;SDS011;65184;50.952;4.366;2023-04-07T06:39:31;37.47;;;17.38;;
76355;SDS011;65184;50.952;4.366;2023-04-07T06:40:53;46.38;;;21.92;;
76355;SDS011;65184;50.952;4.366;2023-04-07T06:42:15;49.40;;;20.92;;
76355;SDS011;65184;50.952;4.366;2023-04-07T06:43:47;44.53;;;20.73;;
76355;SDS011;65184;50.952;4.366;2023-04-07T06:45:11;38.75;;;17.83;;
76355;SDS011;65184;50.952;4.366;2023-04-07T06:47:55;33.72;;;15.43;;
76355;SDS011;65184;50.952;4.366;2023-04-07T06:49:17;30.30;;;15.73;;
76355;SDS011;65184;50.952;4.366;2023-04-07T06:50:39;36.03;;;17.40;;
76355;SDS011;65184;50.952;4.366;2023-04-07T06:52:01;31.35;;;13.93;;
76355;SDS011;65184;50.952;4.366;2023-04-07T06:53:23;33.78;;;17.05;;
76355;SDS011;65184;50.952;4.366;2023-04-07T06:54:45;28.42;;;14.45;;
76355;SDS011;65184;50.952;4.366;2023-04-07T06:56:07;31.23;;;17.85;;
76355;SDS011;65184;50.952;4.366;2023-04-07T06:57:30;32.72;;;17.30;;
76355;SDS011;65184;50.952;4.366;2023-04-07T06:58:52;27.73;;;15.52;;
76355;SDS011;65184;50.952;4.366;2023-04-07T07:00:13;26.45;;;14.15;;
76355;SDS011;65184;50.952;4.366;2023-04-07T07:01:35;33.00;;;17.20;;
76355;SDS011;65184;50.952;4.366;2023-04-07T07:02:58;25.52;;;15.02;;
76355;SDS011;65184;50.952;4.366;2023-04-07T07:04:20;26.85;;;14.73;;
76355;SDS011;65184;50.952;4.366;2023-04-07T07:05:41;29.33;;;15.02;;
76355;SDS011;65184;50.952;4.366;2023-04-07T07:07:03;27.52;;;13.98;;
76355;SDS011;65184;50.952;4.366;2023-04-07T07:08:25;28.50;;;14.95;;
76355;SDS011;65184;50.952;4.366;2023-04-07T07:09:48;22.20;;;12.82;;
76355;SDS011;65184;50.952;4.366;2023-04-07T07:11:09;25.42;;;14.35;;
76355;SDS011;65184;50.952;4.366;2023-04-07T07:12:31;23.20;;;12.43;;
76355;SDS011;65184;50.952;4.366;2023-04-07T07:13:53;31.88;;;15.77;;
76355;SDS011;65184;50.952;4.366;2023-04-07T07:15:15;26.00;;;13.68;;
76355;SDS011;65184;50.952;4.366;2023-04-07T07:16:37;28.73;;;13.73;;
76355;SDS011;65184;50.952;4.366;2023-04-07T07:17:59;27.45;;;12.05;;
76355;SDS011;65184;50.952;4.366;2023-04-07T07:19:20;20.17;;;12.60;;
76355;SDS011;65184;50.952;4.366;2023-04-07T07:20:41;29.08;;;13.68;;
76355;SDS011;65184;50.952;4.366;2023-04-07T07:22:03;27.75;;;14.38;;
76355;SDS011;65184;50.952;4.366;2023-04-07T07:23:25;25.80;;;14.43;;
76355;SDS011;65184;50.952;4.366;2023-04-07T07:24:46;28.95;;;13.95;;
76355;SDS011;65184;50.952;4.366;2023-04-07T07:26:08;21.15;;;11.80;;
76355;SDS011;65184;50.952;4.366;2023-04-07T07:27:30;22.73;;;12.68;;
76355;SDS011;65184;50.952;4.366;2023-04-07T07:28:52;28.58;;;14.65;;
76355;SDS011;65184;50.952;4.366;2023-04-07T07:30:13;26.17;;;14.95;;
76355;SDS011;65184;50.952;4.366;2023-04-07T07:31:35;27.65;;;15.55;;
76355;SDS011;65184;50.952;4.366;2023-04-07T07:32:56;29.02;;;14.20;;
76355;SDS011;65184;50.952;4.366;2023-04-07T07:34:18;27.98;;;15.10;;
76355;SDS011;65184;50.952;4.366;2023-04-07T07:35:40;28.77;;;15.00;;
76355;SDS011;65184;50.952;4.366;2023-04-07T07:37:01;27.20;;;14.05;;
76355;SDS011;65184;50.952;4.366;2023-04-07T07:38:23;26.05;;;13.55;;
76355;SDS011;65184;50.952;4.366;2023-04-07T07:39:45;26.15;;;13.90;;
76355;SDS011;65184;50.952;4.366;2023-04-07T07:41:06;23.40;;;12.50;;
76355;SDS011;65184;50.952;4.366;2023-04-07T07:42:28;26.40;;;14.23;;
76355;SDS011;65184;50.952;4.366;2023-04-07T07:43:51;21.77;;;13.10;;
76355;SDS011;65184;50.952;4.366;2023-04-07T07:45:13;23.48;;;13.98;;
76355;SDS011;65184;50.952;4.366;2023-04-07T07:46:35;23.30;;;13.43;;
76355;SDS011;65184;50.952;4.366;2023-04-07T07:47:56;18.80;;;11.60;;
76355;SDS011;65184;50.952;4.366;2023-04-07T07:49:18;23.90;;;12.93;;
76355;SDS011;65184;50.952;4.366;2023-04-07T07:50:39;18.73;;;12.43;;
76355;SDS011;65184;50.952;4.366;2023-04-07T07:52:02;16.42;;;10.85;;
76355;SDS011;65184;50.952;4.366;2023-04-07T07:53:24;19.48;;;9.80;;
76355;SDS011;65184;50.952;4.366;2023-04-07T07:54:46;15.98;;;9.88;;
76355;SDS011;65184;50.952;4.366;2023-04-07T07:56:08;14.38;;;8.40;;
76355;SDS011;65184;50.952;4.366;2023-04-07T07:57:30;16.48;;;9.10;;
76355;SDS011;65184;50.952;4.366;2023-04-07T07:58:51;15.18;;;8.27;;
76355;SDS011;65184;50.952;4.366;2023-04-07T08:00:13;11.60;;;6.90;;
76355;SDS011;65184;50.952;4.366;2023-04-07T08:01:35;11.98;;;7.93;;
76355;SDS011;65184;50.952;4.366;2023-04-07T08:02:57;13.02;;;6.50;;
76355;SDS011;65184;50.952;4.366;2023-04-07T08:04:18;10.00;;;5.88;;
76355;SDS011;65184;50.952;4.366;2023-04-07T08:05:41;10.48;;;6.05;;
76355;SDS011;65184;50.952;4.366;2023-04-07T08:07:04;14.68;;;5.50;;
76355;SDS011;65184;50.952;4.366;2023-04-07T08:08:25;7.45;;;4.93;;
76355;SDS011;65184;50.952;4.366;2023-04-07T08:09:47;8.13;;;4.50;;
76355;SDS011;65184;50.952;4.366;2023-04-07T08:11:10;9.48;;;4.38;;
76355;SDS011;65184;50.952;4.366;2023-04-07T08:12:31;8.43;;;4.78;;
76355;SDS011;65184;50.952;4.366;2023-04-07T08:13:53;9.43;;;4.88;;
76355;SDS011;65184;50.952;4.366;2023-04-07T08:15:15;9.63;;;4.88;;
76355;SDS011;65184;50.952;4.366;2023-04-07T08:16:36;8.23;;;5.28;;
76355;SDS011;65184;50.952;4.366;2023-04-07T08:17:58;9.00;;;5.40;;
76355;SDS011;65184;50.952;4.366;2023-04-07T08:19:21;9.43;;;5.60;;
76355;SDS011;65184;50.952;4.366;2023-04-07T08:20:42;9.95;;;4.65;;
76355;SDS011;65184;50.952;4.366;2023-04-07T08:22:04;9.82;;;5.20;;
76355;SDS011;65184;50.952;4.366;2023-04-07T08:23:26;13.95;;;6.40;;
76355;SDS011;65184;50.952;4.366;2023-04-07T08:24:48;10.65;;;6.07;;
76355;SDS011;65184;50.952;4.366;2023-04-07T08:26:09;10.95;;;6.32;;
76355;SDS011;65184;50.952;4.366;2023-04-07T08:27:31;14.82;;;6.55;;